LXFUN ELLX-ELLX
Flight info
| Callsign | LXFUN |
|---|---|
| Flight time | 1h 37m |
| Altitude | 2000 |
| Route | ELLX |
| Aircraft | C172/L-VGDW/C |
Departure
| Time | 2026-05-06 17:15 |
|---|---|
| Airport | Luxembourg-Findel International Airport (ELLX) |
Arrival
| Time | 2026-05-06 18:52 |
|---|---|
| Airport | Luxembourg-Findel International Airport (ELLX) |
| Time | Latitude | Longitude | Altitude | Speed | Heading |
|---|---|---|---|---|---|
| 2026-05-06 17:04 | 49.62309 | 6.19503 | 1195 ft | 0 kts | 58° |
| 2026-05-06 17:07 | 49.62314 | 6.19515 | 1196 ft | 6 kts | 58° |
| 2026-05-06 17:07 | 49.62343 | 6.19594 | 1199 ft | 7 kts | 70° |
| 2026-05-06 17:07 | 49.62331 | 6.19660 | 1202 ft | 8 kts | 60° |
| 2026-05-06 17:08 | 49.62364 | 6.19743 | 1208 ft | 10 kts | 60° |
| 2026-05-06 17:08 | 49.62407 | 6.19743 | 1209 ft | 9 kts | 350° |
| 2026-05-06 17:08 | 49.62459 | 6.19781 | 1210 ft | 9 kts | 322° |
| 2026-05-06 17:08 | 49.62450 | 6.19734 | 1208 ft | 0 kts | 174° |
| 2026-05-06 17:11 | 49.62408 | 6.19738 | 1208 ft | 12 kts | 145° |
| 2026-05-06 17:12 | 49.62336 | 6.19828 | 1212 ft | 12 kts | 104° |
| 2026-05-06 17:12 | 49.62380 | 6.19967 | 1217 ft | 19 kts | 60° |
| 2026-05-06 17:12 | 49.62441 | 6.20131 | 1223 ft | 14 kts | 60° |
| 2026-05-06 17:12 | 49.62482 | 6.20242 | 1227 ft | 12 kts | 59° |
| 2026-05-06 17:13 | 49.62531 | 6.20345 | 1229 ft | 12 kts | 49° |
| 2026-05-06 17:13 | 49.62560 | 6.20445 | 1233 ft | 10 kts | 107° |
| 2026-05-06 17:13 | 49.62509 | 6.20505 | 1235 ft | 10 kts | 149° |
| 2026-05-06 17:13 | 49.62442 | 6.20557 | 1233 ft | 11 kts | 177° |
| 2026-05-06 17:14 | 49.62359 | 6.20378 | 1230 ft | 42 kts | 240° |
| 2026-05-06 17:14 | 49.62139 | 6.19781 | 1210 ft | 83 kts | 240° |
| 2026-05-06 17:14 | 49.61833 | 6.18983 | 1373 ft | 86 kts | 240° |
| 2026-05-06 17:14 | 49.61750 | 6.18075 | 1469 ft | 95 kts | 302° |
| 2026-05-06 17:15 | 49.62211 | 6.17365 | 1649 ft | 93 kts | 314° |
| 2026-05-06 17:15 | 49.62654 | 6.16663 | 1840 ft | 90 kts | 314° |
| 2026-05-06 17:15 | 49.63083 | 6.15985 | 1990 ft | 92 kts | 314° |
| 2026-05-06 17:15 | 49.63563 | 6.15238 | 1990 ft | 100 kts | 315° |
| 2026-05-06 17:16 | 49.64062 | 6.14462 | 1989 ft | 103 kts | 315° |
| 2026-05-06 17:16 | 49.64572 | 6.13671 | 1994 ft | 105 kts | 315° |
| 2026-05-06 17:16 | 49.65091 | 6.12866 | 1998 ft | 106 kts | 315° |
| 2026-05-06 17:16 | 49.65613 | 6.12054 | 2001 ft | 107 kts | 315° |
| 2026-05-06 17:17 | 49.66138 | 6.11240 | 2004 ft | 107 kts | 315° |
| 2026-05-06 17:17 | 49.66666 | 6.10421 | 2005 ft | 108 kts | 315° |
| 2026-05-06 17:17 | 49.67192 | 6.09602 | 2007 ft | 107 kts | 315° |
| 2026-05-06 17:17 | 49.67721 | 6.08780 | 2007 ft | 108 kts | 315° |
| 2026-05-06 17:18 | 49.68251 | 6.07957 | 2004 ft | 108 kts | 315° |
| 2026-05-06 17:18 | 49.68778 | 6.07138 | 2003 ft | 107 kts | 315° |
| 2026-05-06 17:18 | 49.69303 | 6.06321 | 2003 ft | 107 kts | 315° |
| 2026-05-06 17:18 | 49.69640 | 6.05795 | 2003 ft | 107 kts | 315° |
| 2026-05-06 17:19 | 49.70133 | 6.05031 | 2004 ft | 108 kts | 315° |
| 2026-05-06 17:19 | 49.70660 | 6.04214 | 2005 ft | 107 kts | 315° |
| 2026-05-06 17:19 | 49.71187 | 6.03396 | 2003 ft | 107 kts | 315° |
| 2026-05-06 17:19 | 49.71714 | 6.02577 | 2004 ft | 108 kts | 315° |
| 2026-05-06 17:20 | 49.72242 | 6.01756 | 2005 ft | 108 kts | 315° |
| 2026-05-06 17:20 | 49.72771 | 6.00933 | 2005 ft | 108 kts | 315° |
| 2026-05-06 17:20 | 49.73294 | 6.00119 | 2005 ft | 108 kts | 315° |
| 2026-05-06 17:20 | 49.73823 | 5.99296 | 2005 ft | 108 kts | 315° |
| 2026-05-06 17:21 | 49.74354 | 5.98470 | 2006 ft | 108 kts | 315° |
| 2026-05-06 17:21 | 49.74884 | 5.97645 | 2004 ft | 109 kts | 315° |
| 2026-05-06 17:21 | 49.75415 | 5.96818 | 2005 ft | 108 kts | 315° |
| 2026-05-06 17:21 | 49.75947 | 5.95991 | 2001 ft | 108 kts | 315° |
| 2026-05-06 17:22 | 49.76477 | 5.95165 | 2001 ft | 108 kts | 315° |
| 2026-05-06 17:22 | 49.77006 | 5.94340 | 2001 ft | 108 kts | 315° |
| 2026-05-06 17:22 | 49.77536 | 5.93517 | 2000 ft | 108 kts | 315° |
| 2026-05-06 17:22 | 49.78063 | 5.92696 | 2000 ft | 108 kts | 315° |
| 2026-05-06 17:23 | 49.78591 | 5.91874 | 2000 ft | 108 kts | 315° |
| 2026-05-06 17:23 | 49.79119 | 5.91052 | 2000 ft | 108 kts | 315° |
| 2026-05-06 17:23 | 49.79648 | 5.90230 | 2000 ft | 108 kts | 315° |
| 2026-05-06 17:23 | 49.80177 | 5.89405 | 2001 ft | 108 kts | 315° |
| 2026-05-06 17:24 | 49.80709 | 5.88575 | 2001 ft | 109 kts | 315° |
| 2026-05-06 17:24 | 49.81241 | 5.87744 | 2002 ft | 109 kts | 315° |
| 2026-05-06 17:24 | 49.81773 | 5.86913 | 2002 ft | 109 kts | 315° |
| 2026-05-06 17:24 | 49.82304 | 5.86083 | 2001 ft | 108 kts | 315° |
| 2026-05-06 17:25 | 49.82837 | 5.85251 | 1994 ft | 108 kts | 315° |
| 2026-05-06 17:25 | 49.83356 | 5.84442 | 2038 ft | 102 kts | 315° |
| 2026-05-06 17:25 | 49.83844 | 5.83677 | 2101 ft | 97 kts | 314° |
| 2026-05-06 17:25 | 49.84434 | 5.83386 | 2162 ft | 94 kts | 23° |
| 2026-05-06 17:26 | 49.84901 | 5.84039 | 2231 ft | 91 kts | 44° |
| 2026-05-06 17:26 | 49.85343 | 5.84709 | 2296 ft | 88 kts | 44° |
| 2026-05-06 17:26 | 49.85772 | 5.85363 | 2362 ft | 86 kts | 44° |
| 2026-05-06 17:26 | 49.86192 | 5.86006 | 2427 ft | 84 kts | 44° |
| 2026-05-06 17:27 | 49.86601 | 5.86631 | 2490 ft | 82 kts | 44° |
| 2026-05-06 17:27 | 49.87021 | 5.87277 | 2491 ft | 88 kts | 44° |
| 2026-05-06 17:27 | 49.87465 | 5.87959 | 2505 ft | 91 kts | 44° |
| 2026-05-06 17:27 | 49.87925 | 5.88665 | 2505 ft | 95 kts | 44° |
| 2026-05-06 17:28 | 49.88401 | 5.89396 | 2504 ft | 98 kts | 44° |
| 2026-05-06 17:28 | 49.88891 | 5.90150 | 2505 ft | 101 kts | 45° |
| 2026-05-06 17:28 | 49.89393 | 5.90925 | 2504 ft | 103 kts | 45° |
| 2026-05-06 17:28 | 49.89902 | 5.91709 | 2506 ft | 103 kts | 45° |
| 2026-05-06 17:29 | 49.90413 | 5.92493 | 2506 ft | 104 kts | 44° |
| 2026-05-06 17:29 | 49.90928 | 5.93278 | 2504 ft | 104 kts | 44° |
| 2026-05-06 17:29 | 49.91442 | 5.94051 | 2502 ft | 105 kts | 44° |
| 2026-05-06 17:29 | 49.91963 | 5.94830 | 2505 ft | 104 kts | 44° |
| 2026-05-06 17:30 | 49.92489 | 5.95607 | 2505 ft | 105 kts | 43° |
| 2026-05-06 17:30 | 49.93020 | 5.96385 | 2505 ft | 105 kts | 43° |
| 2026-05-06 17:30 | 49.93551 | 5.97157 | 2504 ft | 104 kts | 43° |
| 2026-05-06 17:30 | 49.93901 | 5.97663 | 2504 ft | 104 kts | 43° |
| 2026-05-06 17:31 | 49.94432 | 5.98432 | 2494 ft | 104 kts | 35° |
| 2026-05-06 17:31 | 49.94936 | 5.99145 | 2591 ft | 91 kts | 41° |
| 2026-05-06 17:31 | 49.95443 | 5.99844 | 2508 ft | 102 kts | 41° |
| 2026-05-06 17:31 | 49.95981 | 6.00578 | 2506 ft | 103 kts | 41° |
| 2026-05-06 17:32 | 49.96521 | 6.01310 | 2505 ft | 103 kts | 40° |
| 2026-05-06 17:32 | 49.97062 | 6.02034 | 2505 ft | 103 kts | 40° |
| 2026-05-06 17:32 | 49.97606 | 6.02753 | 2503 ft | 102 kts | 40° |
| 2026-05-06 17:32 | 49.98150 | 6.03463 | 2504 ft | 102 kts | 39° |
| 2026-05-06 17:33 | 49.98694 | 6.04165 | 2504 ft | 102 kts | 41° |
| 2026-05-06 17:33 | 49.98884 | 6.05148 | 2507 ft | 101 kts | 113° |
| 2026-05-06 17:33 | 49.98429 | 6.05979 | 2505 ft | 102 kts | 135° |
| 2026-05-06 17:33 | 49.97940 | 6.06786 | 2506 ft | 103 kts | 135° |
| 2026-05-06 17:34 | 49.97447 | 6.07593 | 2507 ft | 103 kts | 134° |
| 2026-05-06 17:34 | 49.96950 | 6.08391 | 2506 ft | 102 kts | 135° |
| 2026-05-06 17:34 | 49.96455 | 6.09183 | 2505 ft | 102 kts | 135° |
| 2026-05-06 17:34 | 49.95968 | 6.09964 | 2505 ft | 102 kts | 135° |
| 2026-05-06 17:35 | 49.95474 | 6.10755 | 2505 ft | 102 kts | 135° |
| 2026-05-06 17:35 | 49.94982 | 6.11543 | 2505 ft | 102 kts | 135° |
| 2026-05-06 17:35 | 49.94491 | 6.12330 | 2505 ft | 101 kts | 135° |
| 2026-05-06 17:36 | 49.93408 | 6.14074 | 2507 ft | 121 kts | 135° |
| 2026-05-06 17:36 | 49.92817 | 6.15022 | 2507 ft | 123 kts | 135° |
| 2026-05-06 17:36 | 49.92215 | 6.15983 | 2506 ft | 125 kts | 135° |
| 2026-05-06 17:36 | 49.91619 | 6.16932 | 2503 ft | 117 kts | 135° |
| 2026-05-06 17:37 | 49.91078 | 6.17790 | 2488 ft | 107 kts | 135° |
| 2026-05-06 17:37 | 49.90568 | 6.18567 | 2485 ft | 99 kts | 147° |
| 2026-05-06 17:37 | 49.89957 | 6.18492 | 2490 ft | 93 kts | 223° |
| 2026-05-06 17:37 | 49.89503 | 6.17799 | 2489 ft | 93 kts | 224° |
| 2026-05-06 17:38 | 49.89038 | 6.17104 | 2488 ft | 93 kts | 225° |
| 2026-05-06 17:38 | 49.88573 | 6.16408 | 2487 ft | 93 kts | 225° |
| 2026-05-06 17:38 | 49.88108 | 6.15712 | 2488 ft | 93 kts | 225° |
| 2026-05-06 17:38 | 49.87643 | 6.15016 | 2488 ft | 93 kts | 225° |
| 2026-05-06 17:39 | 49.87179 | 6.14320 | 2488 ft | 93 kts | 225° |
| 2026-05-06 17:39 | 49.86715 | 6.13623 | 2488 ft | 93 kts | 225° |
| 2026-05-06 17:39 | 49.86402 | 6.12802 | 2491 ft | 91 kts | 277° |
| 2026-05-06 17:39 | 49.86759 | 6.12033 | 2499 ft | 90 kts | 315° |
| 2026-05-06 17:40 | 49.87193 | 6.11331 | 2502 ft | 90 kts | 314° |
| 2026-05-06 17:40 | 49.87631 | 6.10628 | 2504 ft | 91 kts | 315° |
| 2026-05-06 17:40 | 49.88072 | 6.09921 | 2506 ft | 91 kts | 315° |
| 2026-05-06 17:40 | 49.88514 | 6.09212 | 2505 ft | 92 kts | 315° |
| 2026-05-06 17:41 | 49.88953 | 6.08508 | 2504 ft | 92 kts | 315° |
| 2026-05-06 17:41 | 49.89399 | 6.07795 | 2506 ft | 92 kts | 315° |
| 2026-05-06 17:41 | 49.89845 | 6.07080 | 2506 ft | 92 kts | 315° |
| 2026-05-06 17:41 | 49.90364 | 6.06556 | 2503 ft | 91 kts | 2° |
| 2026-05-06 17:42 | 49.90872 | 6.07077 | 2504 ft | 91 kts | 45° |
| 2026-05-06 17:42 | 49.91318 | 6.07768 | 2502 ft | 91 kts | 57° |
| 2026-05-06 17:42 | 49.91250 | 6.08647 | 2508 ft | 89 kts | 135° |
| 2026-05-06 17:42 | 49.90810 | 6.09338 | 2506 ft | 90 kts | 134° |
| 2026-05-06 17:43 | 49.90374 | 6.10043 | 2507 ft | 91 kts | 134° |
| 2026-05-06 17:43 | 49.89934 | 6.10749 | 2507 ft | 91 kts | 135° |
| 2026-05-06 17:43 | 49.89507 | 6.11479 | 2501 ft | 92 kts | 118° |
| 2026-05-06 17:43 | 49.89632 | 6.12358 | 2492 ft | 91 kts | 43° |
| 2026-05-06 17:44 | 49.90092 | 6.13031 | 2496 ft | 91 kts | 45° |
| 2026-05-06 17:44 | 49.90546 | 6.13714 | 2499 ft | 91 kts | 45° |
| 2026-05-06 17:44 | 49.91030 | 6.14337 | 2492 ft | 92 kts | 18° |
| 2026-05-06 17:44 | 49.91579 | 6.13992 | 2492 ft | 90 kts | 312° |
| 2026-05-06 17:45 | 49.92014 | 6.13287 | 2497 ft | 90 kts | 315° |
| 2026-05-06 17:45 | 49.92453 | 6.12584 | 2499 ft | 91 kts | 315° |
| 2026-05-06 17:45 | 49.92893 | 6.11879 | 2501 ft | 91 kts | 315° |
| 2026-05-06 17:45 | 49.93335 | 6.11170 | 2503 ft | 91 kts | 315° |
| 2026-05-06 17:46 | 49.93777 | 6.10461 | 2504 ft | 92 kts | 315° |
| 2026-05-06 17:46 | 49.94221 | 6.09749 | 2505 ft | 92 kts | 315° |
| 2026-05-06 17:46 | 49.94666 | 6.09036 | 2506 ft | 92 kts | 315° |
| 2026-05-06 17:46 | 49.95111 | 6.08322 | 2505 ft | 92 kts | 315° |
| 2026-05-06 17:47 | 49.95556 | 6.07607 | 2506 ft | 92 kts | 315° |
| 2026-05-06 17:47 | 49.95994 | 6.06895 | 2505 ft | 92 kts | 308° |
| 2026-05-06 17:47 | 49.95977 | 6.05983 | 2489 ft | 92 kts | 227° |
| 2026-05-06 17:47 | 49.95516 | 6.05304 | 2494 ft | 91 kts | 225° |
| 2026-05-06 17:48 | 49.95060 | 6.04615 | 2496 ft | 91 kts | 225° |
| 2026-05-06 17:48 | 49.94602 | 6.03928 | 2498 ft | 92 kts | 225° |
| 2026-05-06 17:48 | 49.94138 | 6.03231 | 2477 ft | 94 kts | 225° |
| 2026-05-06 17:48 | 49.93664 | 6.02520 | 2467 ft | 95 kts | 225° |
| 2026-05-06 17:49 | 49.93193 | 6.01813 | 2468 ft | 94 kts | 225° |
| 2026-05-06 17:49 | 49.92725 | 6.01111 | 2468 ft | 94 kts | 225° |
| 2026-05-06 17:49 | 49.92255 | 6.00407 | 2468 ft | 93 kts | 225° |
| 2026-05-06 17:49 | 49.91787 | 5.99706 | 2468 ft | 93 kts | 225° |
| 2026-05-06 17:50 | 49.91319 | 5.99007 | 2467 ft | 93 kts | 223° |
| 2026-05-06 17:50 | 49.90735 | 5.98887 | 2457 ft | 92 kts | 145° |
| 2026-05-06 17:50 | 49.90289 | 5.99593 | 2459 ft | 92 kts | 135° |
| 2026-05-06 17:50 | 49.89843 | 6.00303 | 2461 ft | 92 kts | 135° |
| 2026-05-06 17:51 | 49.89395 | 6.01008 | 2461 ft | 91 kts | 142° |
| 2026-05-06 17:51 | 49.88819 | 6.00993 | 2466 ft | 90 kts | 223° |
| 2026-05-06 17:51 | 49.88375 | 6.00315 | 2472 ft | 90 kts | 224° |
| 2026-05-06 17:51 | 49.87994 | 5.99572 | 2472 ft | 89 kts | 261° |
| 2026-05-06 17:52 | 49.88265 | 5.98768 | 2473 ft | 89 kts | 316° |
| 2026-05-06 17:52 | 49.88695 | 5.98075 | 2476 ft | 90 kts | 314° |
| 2026-05-06 17:52 | 49.88992 | 5.97260 | 2465 ft | 91 kts | 263° |
| 2026-05-06 17:52 | 49.88622 | 5.96514 | 2466 ft | 89 kts | 224° |
| 2026-05-06 17:53 | 49.88180 | 5.95848 | 2471 ft | 90 kts | 225° |
| 2026-05-06 17:53 | 49.87731 | 5.95175 | 2475 ft | 90 kts | 225° |
| 2026-05-06 17:53 | 49.87271 | 5.94486 | 2455 ft | 93 kts | 225° |
| 2026-05-06 17:53 | 49.86803 | 5.93784 | 2438 ft | 94 kts | 225° |
| 2026-05-06 17:54 | 49.86327 | 5.93072 | 2419 ft | 96 kts | 225° |
| 2026-05-06 17:54 | 49.85845 | 5.92350 | 2405 ft | 96 kts | 225° |
| 2026-05-06 17:54 | 49.85373 | 5.91643 | 2406 ft | 95 kts | 225° |
| 2026-05-06 17:54 | 49.84898 | 5.90933 | 2404 ft | 94 kts | 225° |
| 2026-05-06 17:55 | 49.84426 | 5.90227 | 2403 ft | 94 kts | 225° |
| 2026-05-06 17:55 | 49.83956 | 5.89523 | 2404 ft | 94 kts | 225° |
| 2026-05-06 17:55 | 49.83416 | 5.89015 | 2388 ft | 94 kts | 178° |
| 2026-05-06 17:55 | 49.82905 | 5.89563 | 2394 ft | 92 kts | 133° |
| 2026-05-06 17:56 | 49.82460 | 5.90272 | 2393 ft | 92 kts | 135° |
| 2026-05-06 17:56 | 49.82015 | 5.90984 | 2395 ft | 92 kts | 135° |
| 2026-05-06 17:56 | 49.81570 | 5.91698 | 2396 ft | 92 kts | 134° |
| 2026-05-06 17:56 | 49.81482 | 5.92600 | 2388 ft | 92 kts | 55° |
| 2026-05-06 17:57 | 49.81929 | 5.93274 | 2391 ft | 91 kts | 45° |
| 2026-05-06 17:57 | 49.82382 | 5.93957 | 2394 ft | 91 kts | 45° |
| 2026-05-06 17:57 | 49.82840 | 5.94641 | 2396 ft | 91 kts | 45° |
| 2026-05-06 17:57 | 49.83291 | 5.95336 | 2396 ft | 91 kts | 55° |
| 2026-05-06 17:58 | 49.83244 | 5.96224 | 2404 ft | 89 kts | 134° |
| 2026-05-06 17:58 | 49.82805 | 5.96912 | 2406 ft | 90 kts | 134° |
| 2026-05-06 17:58 | 49.82369 | 5.97616 | 2406 ft | 91 kts | 134° |
| 2026-05-06 17:58 | 49.81927 | 5.98324 | 2406 ft | 92 kts | 135° |
| 2026-05-06 17:59 | 49.81483 | 5.99036 | 2406 ft | 92 kts | 134° |
| 2026-05-06 17:59 | 49.81040 | 5.99755 | 2406 ft | 92 kts | 134° |
| 2026-05-06 17:59 | 49.80599 | 6.00482 | 2404 ft | 93 kts | 133° |
| 2026-05-06 17:59 | 49.80267 | 6.01308 | 2394 ft | 93 kts | 90° |
| 2026-05-06 18:00 | 49.80610 | 6.02107 | 2391 ft | 92 kts | 43° |
| 2026-05-06 18:00 | 49.81070 | 6.02796 | 2395 ft | 92 kts | 45° |
| 2026-05-06 18:00 | 49.81530 | 6.03486 | 2397 ft | 92 kts | 45° |
| 2026-05-06 18:00 | 49.81992 | 6.04176 | 2398 ft | 92 kts | 45° |
| 2026-05-06 18:01 | 49.82454 | 6.04868 | 2399 ft | 92 kts | 45° |
| 2026-05-06 18:01 | 49.82919 | 6.05557 | 2400 ft | 93 kts | 44° |
| 2026-05-06 18:01 | 49.83482 | 6.05921 | 2385 ft | 93 kts | 343° |
| 2026-05-06 18:01 | 49.83955 | 6.05280 | 2393 ft | 91 kts | 315° |
| 2026-05-06 18:02 | 49.84401 | 6.04580 | 2396 ft | 91 kts | 314° |
| 2026-05-06 18:02 | 49.84490 | 6.03686 | 2388 ft | 91 kts | 235° |
| 2026-05-06 18:02 | 49.84046 | 6.03015 | 2393 ft | 90 kts | 225° |
| 2026-05-06 18:02 | 49.83597 | 6.02327 | 2396 ft | 91 kts | 225° |
| 2026-05-06 18:03 | 49.83259 | 6.01537 | 2397 ft | 90 kts | 271° |
| 2026-05-06 18:03 | 49.83586 | 6.00759 | 2405 ft | 89 kts | 316° |
| 2026-05-06 18:03 | 49.84032 | 6.00083 | 2404 ft | 90 kts | 318° |
| 2026-05-06 18:03 | 49.84497 | 5.99422 | 2406 ft | 91 kts | 318° |
| 2026-05-06 18:04 | 49.84999 | 5.98848 | 2404 ft | 91 kts | 351° |
| 2026-05-06 18:04 | 49.85529 | 5.99264 | 2404 ft | 90 kts | 46° |
| 2026-05-06 18:04 | 49.85983 | 5.99944 | 2406 ft | 91 kts | 44° |
| 2026-05-06 18:04 | 49.86434 | 6.00617 | 2407 ft | 91 kts | 45° |
| 2026-05-06 18:05 | 49.86893 | 6.01302 | 2407 ft | 92 kts | 44° |
| 2026-05-06 18:05 | 49.87355 | 6.01992 | 2406 ft | 92 kts | 44° |
| 2026-05-06 18:05 | 49.87672 | 6.02809 | 2405 ft | 93 kts | 96° |
| 2026-05-06 18:05 | 49.87291 | 6.03663 | 2410 ft | 105 kts | 135° |
| 2026-05-06 18:06 | 49.86765 | 6.04509 | 2409 ft | 113 kts | 134° |
| 2026-05-06 18:06 | 49.86208 | 6.05403 | 2409 ft | 117 kts | 135° |
| 2026-05-06 18:06 | 49.85636 | 6.06320 | 2408 ft | 119 kts | 134° |
| 2026-05-06 18:06 | 49.85060 | 6.07251 | 2407 ft | 120 kts | 134° |
| 2026-05-06 18:07 | 49.84481 | 6.08191 | 2404 ft | 121 kts | 134° |
| 2026-05-06 18:07 | 49.83903 | 6.09136 | 2405 ft | 121 kts | 134° |
| 2026-05-06 18:07 | 49.83325 | 6.10086 | 2405 ft | 121 kts | 134° |
| 2026-05-06 18:07 | 49.82699 | 6.10904 | 2406 ft | 120 kts | 162° |
| 2026-05-06 18:08 | 49.81862 | 6.10945 | 2373 ft | 123 kts | 183° |
| 2026-05-06 18:08 | 49.81011 | 6.10893 | 2326 ft | 118 kts | 183° |
| 2026-05-06 18:08 | 49.80223 | 6.10842 | 2264 ft | 110 kts | 183° |
| 2026-05-06 18:08 | 49.79478 | 6.10795 | 2200 ft | 105 kts | 183° |
| 2026-05-06 18:09 | 49.78756 | 6.10750 | 2138 ft | 102 kts | 183° |
| 2026-05-06 18:09 | 49.78052 | 6.10707 | 2079 ft | 100 kts | 183° |
| 2026-05-06 18:09 | 49.77359 | 6.10666 | 2015 ft | 99 kts | 183° |
| 2026-05-06 18:09 | 49.76679 | 6.10626 | 1995 ft | 95 kts | 183° |
| 2026-05-06 18:10 | 49.76030 | 6.10589 | 1987 ft | 91 kts | 182° |
| 2026-05-06 18:10 | 49.75409 | 6.10554 | 1985 ft | 88 kts | 182° |
| 2026-05-06 18:10 | 49.74848 | 6.10349 | 1988 ft | 83 kts | 227° |
| 2026-05-06 18:10 | 49.74453 | 6.09719 | 1985 ft | 81 kts | 224° |
| 2026-05-06 18:11 | 49.74054 | 6.09128 | 1987 ft | 79 kts | 224° |
| 2026-05-06 18:11 | 49.73795 | 6.08743 | 1986 ft | 78 kts | 224° |
| 2026-05-06 18:11 | 49.73286 | 6.07985 | 1987 ft | 75 kts | 224° |
| 2026-05-06 18:11 | 49.72912 | 6.07431 | 1985 ft | 74 kts | 224° |
| 2026-05-06 18:12 | 49.72548 | 6.06890 | 1987 ft | 72 kts | 224° |
| 2026-05-06 18:12 | 49.72195 | 6.06367 | 1988 ft | 69 kts | 224° |
| 2026-05-06 18:12 | 49.71855 | 6.05864 | 1984 ft | 66 kts | 224° |
| 2026-05-06 18:12 | 49.71538 | 6.05400 | 1970 ft | 61 kts | 223° |
| 2026-05-06 18:13 | 49.71200 | 6.04916 | 2035 ft | 68 kts | 222° |
| 2026-05-06 18:13 | 49.70778 | 6.04446 | 2089 ft | 81 kts | 192° |
| 2026-05-06 18:13 | 49.70267 | 6.04872 | 2039 ft | 93 kts | 133° |
| 2026-05-06 18:13 | 49.69796 | 6.05625 | 2018 ft | 101 kts | 135° |
| 2026-05-06 18:14 | 49.69297 | 6.06418 | 2010 ft | 105 kts | 135° |
| 2026-05-06 18:14 | 49.68784 | 6.07235 | 2009 ft | 106 kts | 135° |
| 2026-05-06 18:14 | 49.68275 | 6.08048 | 2008 ft | 107 kts | 133° |
| 2026-05-06 18:14 | 49.68136 | 6.09064 | 1983 ft | 100 kts | 63° |
| 2026-05-06 18:15 | 49.68598 | 6.09812 | 1988 ft | 94 kts | 45° |
| 2026-05-06 18:15 | 49.69073 | 6.10523 | 1992 ft | 99 kts | 44° |
| 2026-05-06 18:15 | 49.69575 | 6.11273 | 1999 ft | 101 kts | 45° |
| 2026-05-06 18:15 | 49.70083 | 6.12032 | 2005 ft | 101 kts | 45° |
| 2026-05-06 18:16 | 49.70588 | 6.12787 | 2006 ft | 101 kts | 45° |
| 2026-05-06 18:16 | 49.71093 | 6.13543 | 2005 ft | 101 kts | 45° |
| 2026-05-06 18:16 | 49.71597 | 6.14296 | 2005 ft | 101 kts | 45° |
| 2026-05-06 18:16 | 49.72126 | 6.14998 | 1997 ft | 101 kts | 22° |
| 2026-05-06 18:17 | 49.72760 | 6.14743 | 1991 ft | 100 kts | 314° |
| 2026-05-06 18:17 | 49.73239 | 6.13967 | 1994 ft | 100 kts | 315° |
| 2026-05-06 18:17 | 49.73723 | 6.13198 | 1996 ft | 100 kts | 315° |
| 2026-05-06 18:17 | 49.74207 | 6.12427 | 1997 ft | 100 kts | 315° |
| 2026-05-06 18:18 | 49.74692 | 6.11653 | 1998 ft | 100 kts | 315° |
| 2026-05-06 18:18 | 49.75178 | 6.10878 | 1999 ft | 100 kts | 315° |
| 2026-05-06 18:18 | 49.75662 | 6.10100 | 1999 ft | 100 kts | 314° |
| 2026-05-06 18:18 | 49.75967 | 6.09565 | 1994 ft | 100 kts | 301° |
| 2026-05-06 18:19 | 49.75885 | 6.08576 | 1991 ft | 100 kts | 221° |
| 2026-05-06 18:19 | 49.75081 | 6.08636 | 2059 ft | 93 kts | 136° |
| 2026-05-06 18:19 | 49.74889 | 6.09238 | 2053 ft | 95 kts | 101° |
| 2026-05-06 18:19 | 49.74867 | 6.10597 | 2060 ft | 96 kts | 87° |
| 2026-05-06 18:20 | 49.75017 | 6.11580 | 2093 ft | 95 kts | 54° |
| 2026-05-06 18:20 | 49.75413 | 6.11885 | 2041 ft | 100 kts | 354° |
| 2026-05-06 18:20 | 49.75853 | 6.11183 | 2045 ft | 99 kts | 274° |
| 2026-05-06 18:20 | 49.75500 | 6.10349 | 2063 ft | 96 kts | 203° |
| 2026-05-06 18:21 | 49.74863 | 6.10517 | 2000 ft | 103 kts | 135° |
| 2026-05-06 18:21 | 49.74734 | 6.11499 | 2017 ft | 101 kts | 59° |
| 2026-05-06 18:21 | 49.75373 | 6.11720 | 1990 ft | 98 kts | 325° |
| 2026-05-06 18:21 | 49.75900 | 6.11147 | 2003 ft | 98 kts | 358° |
| 2026-05-06 18:22 | 49.76403 | 6.11720 | 2006 ft | 98 kts | 78° |
| 2026-05-06 18:22 | 49.76135 | 6.12607 | 2009 ft | 98 kts | 148° |
| 2026-05-06 18:22 | 49.75545 | 6.13137 | 2014 ft | 96 kts | 161° |
| 2026-05-06 18:22 | 49.74880 | 6.13295 | 1996 ft | 99 kts | 169° |
| 2026-05-06 18:23 | 49.74224 | 6.13618 | 2009 ft | 98 kts | 160° |
| 2026-05-06 18:23 | 49.73593 | 6.14019 | 2032 ft | 97 kts | 159° |
| 2026-05-06 18:23 | 49.72954 | 6.14420 | 2017 ft | 99 kts | 156° |
| 2026-05-06 18:23 | 49.72315 | 6.14858 | 2000 ft | 101 kts | 157° |
| 2026-05-06 18:24 | 49.71672 | 6.15279 | 2005 ft | 101 kts | 159° |
| 2026-05-06 18:24 | 49.71007 | 6.15610 | 2006 ft | 100 kts | 167° |
| 2026-05-06 18:24 | 49.70320 | 6.15816 | 1992 ft | 102 kts | 172° |
| 2026-05-06 18:24 | 49.69636 | 6.16037 | 2017 ft | 99 kts | 162° |
| 2026-05-06 18:25 | 49.68989 | 6.16398 | 2015 ft | 99 kts | 159° |
| 2026-05-06 18:25 | 49.68337 | 6.16733 | 2032 ft | 99 kts | 164° |
| 2026-05-06 18:25 | 49.67681 | 6.17048 | 2041 ft | 99 kts | 163° |
| 2026-05-06 18:25 | 49.67022 | 6.17393 | 2010 ft | 100 kts | 162° |
| 2026-05-06 18:26 | 49.66356 | 6.17745 | 1953 ft | 102 kts | 161° |
| 2026-05-06 18:26 | 49.65706 | 6.18103 | 1956 ft | 96 kts | 159° |
| 2026-05-06 18:26 | 49.65092 | 6.18534 | 1926 ft | 97 kts | 152° |
| 2026-05-06 18:26 | 49.64641 | 6.19238 | 1898 ft | 99 kts | 118° |
| 2026-05-06 18:27 | 49.64542 | 6.20219 | 1954 ft | 93 kts | 82° |
| 2026-05-06 18:27 | 49.64716 | 6.21189 | 1948 ft | 94 kts | 73° |
| 2026-05-06 18:27 | 49.64921 | 6.22136 | 1963 ft | 94 kts | 72° |
| 2026-05-06 18:27 | 49.65265 | 6.22874 | 2046 ft | 83 kts | 17° |
| 2026-05-06 18:28 | 49.65760 | 6.22532 | 2054 ft | 83 kts | 292° |
| 2026-05-06 18:28 | 49.65584 | 6.21749 | 2014 ft | 89 kts | 205° |
| 2026-05-06 18:28 | 49.65058 | 6.22076 | 1992 ft | 90 kts | 110° |
| 2026-05-06 18:28 | 49.65083 | 6.22999 | 1998 ft | 90 kts | 95° |
| 2026-05-06 18:29 | 49.64805 | 6.23847 | 1988 ft | 92 kts | 140° |
| 2026-05-06 18:29 | 49.64244 | 6.24383 | 1961 ft | 94 kts | 169° |
| 2026-05-06 18:29 | 49.63705 | 6.23977 | 1813 ft | 103 kts | 240° |
| 2026-05-06 18:29 | 49.63328 | 6.22986 | 1558 ft | 109 kts | 241° |
| 2026-05-06 18:30 | 49.62956 | 6.21978 | 1304 ft | 107 kts | 242° |
| 2026-05-06 18:30 | 49.62623 | 6.21065 | 1248 ft | 87 kts | 241° |
| 2026-05-06 18:30 | 49.62316 | 6.20266 | 1285 ft | 92 kts | 237° |
| 2026-05-06 18:30 | 49.61983 | 6.19428 | 1491 ft | 91 kts | 242° |
| 2026-05-06 18:31 | 49.61633 | 6.18557 | 1614 ft | 99 kts | 238° |
| 2026-05-06 18:31 | 49.61190 | 6.17933 | 1851 ft | 83 kts | 193° |
| 2026-05-06 18:31 | 49.60622 | 6.18150 | 1940 ft | 88 kts | 141° |
| 2026-05-06 18:31 | 49.60284 | 6.18969 | 2036 ft | 90 kts | 110° |
| 2026-05-06 18:32 | 49.60281 | 6.19935 | 2058 ft | 96 kts | 83° |
| 2026-05-06 18:32 | 49.60395 | 6.20968 | 2063 ft | 103 kts | 78° |
| 2026-05-06 18:32 | 49.60613 | 6.22025 | 2093 ft | 102 kts | 70° |
| 2026-05-06 18:32 | 49.60926 | 6.22988 | 2036 ft | 99 kts | 55° |
| 2026-05-06 18:33 | 49.61336 | 6.23829 | 1972 ft | 97 kts | 52° |
| 2026-05-06 18:33 | 49.61769 | 6.24615 | 1938 ft | 94 kts | 49° |
| 2026-05-06 18:33 | 49.62278 | 6.25249 | 1956 ft | 94 kts | 24° |
| 2026-05-06 18:33 | 49.62958 | 6.25273 | 1999 ft | 102 kts | 335° |
| 2026-05-06 18:34 | 49.63493 | 6.24583 | 1691 ft | 104 kts | 301° |
| 2026-05-06 18:34 | 49.63514 | 6.23509 | 1361 ft | 107 kts | 245° |
| 2026-05-06 18:34 | 49.63162 | 6.22546 | 1252 ft | 97 kts | 242° |
| 2026-05-06 18:34 | 49.62853 | 6.21703 | 1219 ft | 81 kts | 241° |
| 2026-05-06 18:35 | 49.62544 | 6.20885 | 1291 ft | 94 kts | 239° |
| 2026-05-06 18:35 | 49.62223 | 6.20043 | 1520 ft | 90 kts | 241° |
| 2026-05-06 18:35 | 49.61906 | 6.19215 | 1711 ft | 89 kts | 240° |
| 2026-05-06 18:35 | 49.61576 | 6.18411 | 1888 ft | 87 kts | 227° |
| 2026-05-06 18:36 | 49.61048 | 6.18141 | 1992 ft | 85 kts | 165° |
| 2026-05-06 18:36 | 49.60563 | 6.18717 | 1995 ft | 93 kts | 131° |
| 2026-05-06 18:36 | 49.60275 | 6.19609 | 2008 ft | 97 kts | 98° |
| 2026-05-06 18:36 | 49.60307 | 6.20663 | 2001 ft | 99 kts | 81° |
| 2026-05-06 18:37 | 49.60465 | 6.21688 | 2008 ft | 98 kts | 75° |
| 2026-05-06 18:37 | 49.60704 | 6.22670 | 1996 ft | 99 kts | 62° |
| 2026-05-06 18:37 | 49.61098 | 6.23516 | 2008 ft | 96 kts | 49° |
| 2026-05-06 18:37 | 49.61572 | 6.24262 | 1986 ft | 97 kts | 44° |
| 2026-05-06 18:38 | 49.62083 | 6.24954 | 1971 ft | 98 kts | 40° |
| 2026-05-06 18:38 | 49.62644 | 6.25518 | 1993 ft | 95 kts | 17° |
| 2026-05-06 18:38 | 49.63305 | 6.25407 | 1900 ft | 101 kts | 331° |
| 2026-05-06 18:38 | 49.63671 | 6.24530 | 1748 ft | 98 kts | 277° |
| 2026-05-06 18:39 | 49.63511 | 6.23485 | 1464 ft | 107 kts | 243° |
| 2026-05-06 18:39 | 49.63142 | 6.22486 | 1289 ft | 103 kts | 241° |
| 2026-05-06 18:39 | 49.62820 | 6.21612 | 1222 ft | 85 kts | 240° |
| 2026-05-06 18:40 | 49.62190 | 6.19938 | 1454 ft | 89 kts | 242° |
| 2026-05-06 18:40 | 49.61888 | 6.19107 | 1583 ft | 90 kts | 242° |
| 2026-05-06 18:40 | 49.61569 | 6.18291 | 1734 ft | 87 kts | 229° |
| 2026-05-06 18:40 | 49.61041 | 6.17996 | 1838 ft | 87 kts | 167° |
| 2026-05-06 18:41 | 49.60563 | 6.18574 | 1889 ft | 93 kts | 123° |
| 2026-05-06 18:41 | 49.60287 | 6.19497 | 1962 ft | 96 kts | 104° |
| 2026-05-06 18:41 | 49.60277 | 6.20519 | 2012 ft | 98 kts | 82° |
| 2026-05-06 18:41 | 49.60424 | 6.21547 | 2059 ft | 98 kts | 74° |
| 2026-05-06 18:42 | 49.60676 | 6.22517 | 2040 ft | 98 kts | 64° |
| 2026-05-06 18:42 | 49.61031 | 6.23409 | 1998 ft | 99 kts | 54° |
| 2026-05-06 18:42 | 49.61466 | 6.24221 | 1980 ft | 97 kts | 48° |
| 2026-05-06 18:42 | 49.61949 | 6.24936 | 1961 ft | 96 kts | 39° |
| 2026-05-06 18:43 | 49.62500 | 6.25483 | 1939 ft | 95 kts | 24° |
| 2026-05-06 18:43 | 49.63176 | 6.25555 | 1863 ft | 100 kts | 341° |
| 2026-05-06 18:43 | 49.63645 | 6.24769 | 1736 ft | 107 kts | 289° |
| 2026-05-06 18:43 | 49.63574 | 6.23657 | 1461 ft | 109 kts | 243° |
| 2026-05-06 18:44 | 49.63212 | 6.22667 | 1262 ft | 98 kts | 241° |
| 2026-05-06 18:44 | 49.62902 | 6.21828 | 1218 ft | 86 kts | 241° |
| 2026-05-06 18:44 | 49.62584 | 6.20983 | 1345 ft | 92 kts | 240° |
| 2026-05-06 18:44 | 49.62277 | 6.20181 | 1537 ft | 84 kts | 241° |
| 2026-05-06 18:45 | 49.61984 | 6.19383 | 1661 ft | 86 kts | 240° |
| 2026-05-06 18:45 | 49.61644 | 6.18576 | 1769 ft | 89 kts | 226° |
| 2026-05-06 18:45 | 49.61094 | 6.18303 | 1906 ft | 88 kts | 169° |
| 2026-05-06 18:45 | 49.60589 | 6.18856 | 1974 ft | 95 kts | 133° |
| 2026-05-06 18:46 | 49.60256 | 6.19716 | 2041 ft | 94 kts | 101° |
| 2026-05-06 18:46 | 49.60289 | 6.20757 | 2025 ft | 102 kts | 79° |
| 2026-05-06 18:46 | 49.60478 | 6.21802 | 2054 ft | 99 kts | 71° |
| 2026-05-06 18:46 | 49.60758 | 6.22758 | 1989 ft | 98 kts | 62° |
| 2026-05-06 18:47 | 49.61129 | 6.23637 | 1922 ft | 97 kts | 53° |
| 2026-05-06 18:47 | 49.61580 | 6.24413 | 1893 ft | 98 kts | 44° |
| 2026-05-06 18:47 | 49.62081 | 6.25096 | 1964 ft | 92 kts | 56° |
| 2026-05-06 18:47 | 49.62092 | 6.26004 | 2005 ft | 91 kts | 123° |
| 2026-05-06 18:48 | 49.61562 | 6.26432 | 2037 ft | 90 kts | 182° |
| 2026-05-06 18:48 | 49.61059 | 6.25939 | 2004 ft | 95 kts | 250° |
| 2026-05-06 18:48 | 49.61293 | 6.25096 | 1985 ft | 95 kts | 341° |
| 2026-05-06 18:48 | 49.61881 | 6.25349 | 2016 ft | 92 kts | 47° |
| 2026-05-06 18:49 | 49.62029 | 6.26279 | 2003 ft | 94 kts | 107° |
| 2026-05-06 18:49 | 49.61588 | 6.26983 | 1989 ft | 95 kts | 162° |
| 2026-05-06 18:49 | 49.60983 | 6.26829 | 1985 ft | 88 kts | 222° |
| 2026-05-06 18:49 | 49.60839 | 6.25987 | 1963 ft | 85 kts | 295° |
| 2026-05-06 18:50 | 49.61320 | 6.25515 | 1926 ft | 88 kts | 355° |
| 2026-05-06 18:50 | 49.61937 | 6.25668 | 1925 ft | 89 kts | 13° |
| 2026-05-06 18:50 | 49.62519 | 6.25785 | 1854 ft | 80 kts | 7° |
| 2026-05-06 18:50 | 49.63071 | 6.25825 | 1780 ft | 79 kts | 0° |
| 2026-05-06 18:51 | 49.63621 | 6.25765 | 1714 ft | 79 kts | 349° |
| 2026-05-06 18:51 | 49.64070 | 6.25334 | 1653 ft | 79 kts | 295° |
| 2026-05-06 18:51 | 49.63916 | 6.24539 | 1525 ft | 87 kts | 236° |
| 2026-05-06 18:51 | 49.63576 | 6.23667 | 1453 ft | 104 kts | 240° |
| 2026-05-06 18:52 | 49.63181 | 6.22601 | 1274 ft | 111 kts | 242° |
| 2026-05-06 18:52 | 49.62842 | 6.21676 | 1220 ft | 88 kts | 241° |
| 2026-05-06 18:52 | 49.62667 | 6.21180 | 1231 ft | 33 kts | 259° |
| 2026-05-06 18:52 | 49.62650 | 6.20935 | 1235 ft | 16 kts | 268° |
| 2026-05-06 18:53 | 49.62662 | 6.20779 | 1244 ft | 16 kts | 308° |
| 2026-05-06 18:53 | 49.62704 | 6.20630 | 1235 ft | 20 kts | 221° |
| 2026-05-06 18:53 | 49.62587 | 6.20450 | 1234 ft | 34 kts | 228° |
| 2026-05-06 18:53 | 49.62436 | 6.20116 | 1222 ft | 36 kts | 240° |
| 2026-05-06 18:54 | 49.62317 | 6.19797 | 1210 ft | 33 kts | 240° |
| 2026-05-06 18:54 | 49.62222 | 6.19542 | 1196 ft | 10 kts | 253° |
| 2026-05-06 18:54 | 49.62273 | 6.19476 | 1194 ft | 12 kts | 330° |
| 2026-05-06 18:54 | 49.62324 | 6.19455 | 1194 ft | 5 kts | 59° |
| 2026-05-06 18:55 | 49.62341 | 6.19500 | 1196 ft | 6 kts | 60° |
| 2026-05-06 18:55 | 49.62367 | 6.19585 | 1199 ft | 9 kts | 116° |
| 2026-05-06 18:55 | 49.62305 | 6.19497 | 1195 ft | 18 kts | 240° |
| 2026-05-06 18:55 | 49.62331 | 6.19422 | 1193 ft | 11 kts | 330° |
| 2026-05-06 18:56 | 49.62374 | 6.19442 | 1195 ft | 8 kts | 60° |
| 2026-05-06 18:56 | 49.62394 | 6.19491 | 1196 ft | 0 kts | 100° |